createdAt,value
2023-01-05T00:01:08.735Z,94.63
2023-01-05T00:06:14.134Z,104.43
2023-01-05T00:11:37.456Z,101.38
2023-01-05T00:16:57.784Z,93.57
2023-01-05T00:22:19.552Z,87.55
2023-01-05T00:27:21.648Z,76.65
2023-01-05T00:32:24.109Z,77.43
2023-01-05T00:37:34.667Z,74.13
2023-01-05T00:42:38.374Z,83.25
2023-01-05T00:47:41.006Z,82.03
2023-01-05T00:52:44.125Z,67.15
2023-01-05T00:57:46.614Z,54.33
2023-01-05T01:02:52.541Z,50.50
2023-01-05T01:07:58.660Z,52.50
2023-01-05T01:13:00.773Z,52.67
2023-01-05T01:18:02.946Z,52.70
2023-01-05T01:23:05.978Z,50.10
2023-01-05T01:28:08.095Z,48.50
2023-01-05T01:33:10.331Z,49.72
2023-01-05T01:38:12.616Z,50.70
2023-01-05T01:43:17.460Z,49.65
2023-01-05T01:48:19.555Z,48.08
2023-01-05T01:53:26.014Z,47.80
2023-01-05T01:58:31.546Z,46.88
2023-01-05T02:03:33.751Z,47.83
2023-01-05T02:08:35.905Z,52.08
2023-01-05T02:13:55.677Z,54.75
2023-01-05T02:19:23.974Z,36.55
2023-01-05T02:25:04.629Z,51.25
2023-01-05T02:30:36.928Z,46.43
2023-01-05T02:35:42.798Z,53.95
2023-01-05T02:40:50.164Z,49.55
2023-01-05T02:45:52.463Z,51.50
2023-01-05T02:51:01.694Z,52.67
2023-01-05T02:56:25.590Z,55.45
2023-01-05T03:01:34.374Z,51.67
2023-01-05T03:06:47.303Z,50.70
2023-01-05T03:12:18.270Z,49.70
2023-01-05T03:22:51.623Z,53.70
2023-01-05T03:28:16.761Z,50.38
2023-01-05T03:33:53.990Z,49.38
2023-01-05T03:38:58.978Z,45.78
2023-01-05T03:44:01.279Z,45.92
2023-01-05T03:49:04.573Z,45.08
2023-01-05T03:54:06.825Z,44.58
2023-01-05T03:59:08.947Z,45.10
2023-01-05T04:04:11.068Z,43.35
2023-01-05T04:09:13.177Z,44.17
2023-01-05T04:14:15.272Z,42.42
2023-01-05T04:19:17.399Z,38.83
2023-01-05T04:24:19.515Z,38.00
2023-01-05T04:29:24.133Z,38.08
2023-01-05T04:34:26.234Z,34.67
2023-01-05T04:39:28.354Z,31.23
2023-01-05T04:44:31.606Z,32.22
2023-01-05T04:49:33.679Z,28.42
2023-01-05T04:54:35.744Z,28.05
2023-01-05T04:59:37.838Z,25.67
2023-01-05T05:04:39.907Z,24.77
2023-01-05T05:09:42.020Z,25.17
2023-01-05T05:14:44.142Z,23.65
2023-01-05T05:19:46.294Z,22.08
2023-01-05T05:24:48.397Z,22.25
2023-01-05T05:29:50.450Z,21.95
2023-01-05T05:34:52.513Z,20.10
2023-01-05T05:39:54.545Z,21.88
2023-01-05T05:44:56.694Z,20.73
2023-01-05T05:49:58.784Z,18.80
2023-01-05T05:55:00.960Z,17.85
2023-01-05T06:00:03.756Z,18.63
2023-01-05T06:05:06.586Z,17.33
2023-01-05T06:10:09.202Z,18.40
2023-01-05T06:15:11.659Z,19.23
2023-01-05T06:20:16.394Z,19.27
2023-01-05T06:25:22.419Z,20.95
2023-01-05T06:30:27.143Z,22.45
2023-01-05T06:35:29.336Z,21.85
2023-01-05T06:40:31.535Z,20.17
2023-01-05T06:45:33.979Z,23.08
2023-01-05T06:50:36.420Z,24.33
2023-01-05T06:55:38.463Z,24.40
2023-01-05T07:00:40.601Z,27.33
2023-01-05T07:05:42.871Z,27.25
2023-01-05T07:10:44.982Z,26.77
2023-01-05T07:15:47.063Z,29.83
2023-01-05T07:20:55.052Z,31.92
2023-01-05T07:26:02.981Z,30.27
2023-01-05T07:31:07.874Z,29.13
2023-01-05T07:36:10.343Z,38.78
2023-01-05T07:41:12.454Z,40.05
2023-01-05T07:46:16.082Z,37.78
2023-01-05T07:51:18.624Z,30.73
2023-01-05T07:56:20.765Z,29.13
2023-01-05T08:01:23.104Z,30.67
2023-01-05T08:06:25.538Z,27.38
2023-01-05T08:11:27.630Z,33.03
2023-01-05T08:16:31.776Z,32.40
2023-01-05T08:21:34.004Z,30.58
2023-01-05T08:26:36.241Z,29.35
2023-01-05T08:31:40.417Z,31.35
2023-01-05T08:36:44.054Z,31.02
2023-01-05T08:41:53.333Z,29.58
2023-01-05T08:46:59.117Z,31.10
2023-01-05T08:52:01.301Z,31.95
2023-01-05T08:57:15.166Z,32.13
2023-01-05T09:02:23.441Z,27.08
2023-01-05T09:07:28.779Z,23.83
2023-01-05T09:12:33.196Z,25.17
2023-01-05T09:17:38.673Z,26.67
2023-01-05T09:22:40.880Z,25.20
2023-01-05T09:27:43.268Z,29.02
2023-01-05T09:32:45.375Z,26.77
2023-01-05T09:37:47.635Z,26.50
2023-01-05T09:42:49.808Z,27.15
2023-01-05T09:47:54.280Z,23.00
2023-01-05T09:53:00.204Z,21.25
2023-01-05T09:58:17.906Z,19.92
2023-01-05T10:04:01.892Z,18.17
2023-01-05T10:08:51.285Z,18.60
2023-01-05T10:13:59.960Z,17.13
2023-01-05T10:19:03.076Z,17.33
2023-01-05T10:24:18.331Z,16.45
2023-01-05T10:29:27.795Z,17.45
2023-01-05T10:34:50.837Z,16.73
2023-01-05T10:40:21.902Z,15.60
2023-01-05T10:45:29.432Z,16.23
2023-01-05T10:50:38.355Z,16.08
2023-01-05T10:55:50.677Z,15.77
2023-01-05T11:00:56.817Z,15.52
2023-01-05T11:05:59.873Z,16.17
2023-01-05T11:11:08.136Z,17.38
2023-01-05T11:16:34.972Z,17.80
2023-01-05T11:22:12.721Z,16.77
2023-01-05T11:27:20.940Z,16.27
2023-01-05T11:32:25.914Z,16.02
2023-01-05T11:37:30.930Z,16.35
2023-01-05T11:42:36.015Z,14.85
2023-01-05T11:47:45.908Z,16.42
2023-01-05T11:58:00.013Z,15.57
2023-01-05T12:03:27.142Z,16.67
2023-01-05T12:08:38.577Z,16.77
2023-01-05T12:13:49.276Z,17.63
2023-01-05T12:19:17.117Z,16.58
2023-01-05T12:25:02.139Z,15.30
2023-01-05T12:36:37.202Z,13.93
2023-01-05T12:41:45.338Z,11.95
2023-01-05T12:47:02.892Z,12.60
2023-01-05T12:52:16.375Z,13.80
2023-01-05T12:57:33.138Z,12.48
2023-01-05T13:02:37.631Z,13.07
2023-01-05T13:08:03.278Z,12.35
2023-01-05T13:13:15.143Z,12.85
2023-01-05T13:18:19.846Z,13.35
2023-01-05T13:23:27.820Z,11.80
2023-01-05T13:28:31.944Z,12.05
2023-01-05T13:33:59.833Z,11.75
2023-01-05T13:39:13.304Z,12.55
2023-01-05T13:44:25.349Z,11.75
2023-01-05T13:49:37.717Z,11.63
2023-01-05T13:55:03.202Z,12.80
2023-01-05T14:00:12.369Z,12.25
2023-01-05T14:05:24.769Z,13.48
2023-01-05T14:10:31.185Z,12.60
2023-01-05T14:15:40.650Z,13.27
2023-01-05T14:20:49.467Z,12.25
2023-01-05T14:26:04.867Z,11.13
2023-01-05T14:31:15.840Z,12.38
2023-01-05T14:36:34.893Z,11.85
2023-01-05T14:41:37.173Z,11.23
2023-01-05T14:47:10.141Z,11.45
2023-01-05T14:52:19.066Z,11.70
2023-01-05T14:57:35.694Z,12.25
2023-01-05T15:03:02.064Z,13.82
2023-01-05T15:08:48.860Z,14.15
2023-01-05T15:14:33.106Z,13.93
2023-01-05T15:19:37.782Z,19.17
2023-01-05T15:25:00.422Z,30.67
2023-01-05T15:30:05.247Z,23.88
2023-01-05T15:35:17.180Z,20.50
2023-01-05T15:40:22.155Z,20.52
2023-01-05T15:45:24.200Z,16.92
2023-01-05T15:50:32.946Z,17.48
2023-01-05T15:55:35.137Z,21.58
2023-01-05T16:00:37.588Z,20.13
2023-01-05T16:05:39.822Z,19.25
2023-01-05T16:11:01.244Z,19.88
2023-01-05T16:16:11.425Z,19.27
2023-01-05T16:21:18.878Z,20.38
2023-01-05T16:26:21.460Z,20.33
2023-01-05T16:31:31.040Z,21.50
2023-01-05T16:36:33.263Z,23.40
2023-01-05T16:41:55.417Z,25.45
2023-01-05T16:47:09.628Z,23.30
2023-01-05T16:52:23.950Z,25.63
2023-01-05T16:57:32.669Z,26.85
2023-01-05T17:02:44.821Z,29.92
2023-01-05T17:07:50.008Z,27.20
2023-01-05T17:13:07.063Z,27.33
2023-01-05T17:18:18.390Z,29.30
2023-01-05T17:23:28.884Z,26.73
2023-01-05T17:28:31.077Z,30.25
2023-01-05T17:33:33.544Z,24.60
2023-01-05T17:38:35.732Z,26.45
2023-01-05T17:43:37.869Z,25.42
2023-01-05T17:48:40.004Z,30.23
2023-01-05T17:53:42.078Z,28.80
2023-01-05T17:58:44.238Z,31.80
2023-01-05T18:08:53.287Z,29.60
2023-01-05T18:13:55.427Z,29.83
2023-01-05T18:18:57.572Z,32.45
2023-01-05T18:23:59.815Z,34.65
2023-01-05T18:29:02.055Z,36.30
2023-01-05T18:34:04.158Z,38.70
2023-01-05T18:39:07.275Z,33.47
2023-01-05T18:44:09.374Z,33.60
2023-01-05T18:49:12.676Z,31.80
2023-01-05T18:54:14.828Z,34.38
2023-01-05T18:59:16.962Z,41.45
2023-01-05T19:04:19.451Z,37.45
2023-01-05T19:09:21.667Z,39.42
2023-01-05T19:14:23.866Z,38.40
2023-01-05T19:19:26.104Z,35.75
2023-01-05T19:24:28.275Z,39.75
2023-01-05T19:29:30.485Z,45.30
2023-01-05T19:34:32.564Z,60.53
2023-01-05T19:39:35.101Z,48.15
2023-01-05T19:44:37.231Z,56.50
2023-01-05T19:49:39.316Z,50.05
2023-01-05T19:54:42.262Z,41.72
2023-01-05T19:59:44.327Z,59.22
2023-01-05T20:04:47.115Z,75.60
2023-01-05T20:09:50.758Z,71.97
2023-01-05T20:14:52.882Z,55.22
2023-01-05T20:19:55.071Z,55.70
2023-01-05T20:24:57.183Z,48.55
2023-01-05T20:29:59.305Z,39.92
2023-01-05T20:35:01.535Z,43.42
2023-01-05T20:40:04.740Z,65.50
2023-01-05T20:45:07.801Z,82.07
2023-01-05T20:50:10.155Z,43.10
2023-01-05T20:55:12.307Z,35.95
2023-01-05T21:00:16.592Z,40.40
2023-01-05T21:05:18.817Z,41.08
2023-01-05T21:10:20.992Z,51.33
2023-01-05T21:15:23.322Z,48.75
2023-01-05T21:20:27.413Z,72.13
2023-01-05T21:25:30.116Z,92.65
2023-01-05T21:30:52.243Z,99.70
2023-01-05T21:35:54.631Z,101.50
2023-01-05T21:41:05.157Z,104.63
2023-01-05T21:46:12.515Z,99.43
2023-01-05T21:51:33.114Z,86.07
2023-01-05T22:01:40.853Z,46.28
2023-01-05T22:06:43.004Z,34.65
2023-01-05T22:11:45.237Z,27.55
2023-01-05T22:16:47.807Z,25.98
2023-01-05T22:21:49.932Z,26.58
2023-01-05T22:26:52.051Z,25.50
2023-01-05T22:31:54.263Z,26.17
2023-01-05T22:36:56.333Z,30.60
2023-01-05T22:41:58.425Z,33.95
2023-01-05T22:47:00.559Z,27.90
2023-01-05T22:52:03.640Z,29.25
2023-01-05T22:57:05.864Z,30.17
2023-01-05T23:02:08.784Z,31.20
2023-01-05T23:07:11.284Z,41.20
2023-01-05T23:12:13.399Z,45.47
2023-01-05T23:17:15.513Z,47.88
2023-01-05T23:22:17.555Z,49.42
2023-01-05T23:27:19.581Z,55.70
2023-01-05T23:32:21.787Z,64.57
2023-01-05T23:37:23.881Z,58.42
2023-01-05T23:42:51.946Z,55.33
2023-01-05T23:47:54.176Z,52.92
2023-01-05T23:52:56.232Z,51.20
2023-01-05T23:57:58.914Z,53.35
